Time;durP1;ratioP1;P1;durP2;ratioP2;P2;SDS_P1;SDS_P2;PMS_P1;PMS_P2;Temp;Humidity;BMP_temperature;BMP_pressure;BME280_temperature;BME280_humidity;BME280_pressure;Samples;Min_cycle;Max_cycle;Signal;HPM_P1;HPM_P2
2023/05/23 00:00:41;;;;;;;;;;;;;;;22.78;51.67;100563.98;2353068;75;51412;-74
2023/05/23 00:03:43;;;;;;;;;;;;;;;22.77;51.68;100551.55;2326250;75;49858;-75
2023/05/23 00:06:49;;;;;;;;;;;;;;;22.77;51.75;100559.64;2352748;75;51594;-74
2023/05/23 00:09:51;;;;;;;;;;;;;;;22.77;51.77;100552.90;2351041;74;51524;-74
2023/05/23 00:12:52;;;;;;;;;;;;;;;22.78;51.73;100549.14;2352936;75;51499;-74
2023/05/23 00:15:54;;;;;;;;;;;;;;;22.75;51.81;100549.58;2351169;74;50702;-74
2023/05/23 00:18:57;;;;;;;;;;;;;;;22.77;51.85;100543.98;2352782;75;51459;-74
2023/05/23 00:21:59;;;;;;;;;;;;;;;22.77;51.84;100546.16;2353142;75;22426;-74
2023/05/23 00:25:00;;;;;;;;;;;;;;;22.78;51.81;100543.75;2358343;75;50730;-74
2023/05/23 00:28:02;;;;;;;;;;;;;;;22.78;51.77;100542.92;2353194;75;50304;-74
2023/05/23 00:31:04;;;;;;;;;;;;;;;22.78;51.77;100545.63;2355560;75;52503;-74
2023/05/23 00:34:06;;;;;;;;;;;;;;;22.78;51.75;100535.66;2355478;75;50309;-74
2023/05/23 00:37:07;;;;;;;;;;;;;;;22.78;51.70;100529.44;2353330;75;50259;-74
2023/05/23 00:40:09;;;;;;;;;;;;;;;22.77;51.69;100521.87;2328692;75;51167;-75
2023/05/23 00:43:11;;;;;;;;;;;;;;;22.77;51.73;100525.92;2360753;75;49923;-74
2023/05/23 00:46:12;;;;;;;;;;;;;;;22.77;51.70;100524.57;2366380;74;50140;-75
2023/05/23 00:49:14;;;;;;;;;;;;;;;22.77;51.70;100526.45;2366467;75;50277;-75
2023/05/23 00:52:16;;;;;;;;;;;;;;;22.76;51.70;100526.97;2339477;75;49458;-74
2023/05/23 00:55:17;;;;;;;;;;;;;;;22.77;51.69;100524.57;2357193;75;51502;-75
2023/05/23 00:58:19;;;;;;;;;;;;;;;22.78;51.69;100517.30;2354017;75;51683;-76
2023/05/23 01:01:21;;;;;;;;;;;;;;;22.77;51.69;100515.13;2354259;75;51493;-75
2023/05/23 01:04:27;;;;;;;;;;;;;;;22.78;51.71;100510.03;2329341;75;52248;-74
2023/05/23 01:07:26;;;;;;;;;;;;;;;22.79;51.67;100510.36;2353222;75;22279;-74
2023/05/23 01:10:28;;;;;;;;;;;;;;;22.77;51.63;100502.17;2354189;75;50611;-75
2023/05/23 01:13:34;;;;;;;;;;;;;;;22.76;51.62;100496.45;2354340;75;50521;-75
2023/05/23 01:16:40;;;;;;;;;;;;;;;22.76;51.64;100500.00;2386837;74;50075;-75
2023/05/23 01:19:59;;;;;;;;;;;;;;;22.76;51.58;100495.95;2353873;75;51505;-75
2023/05/23 01:23:20;;;;;;;;;;;;;;;22.77;51.59;100495.42;2385524;73;52566;-75
2023/05/23 01:26:26;;;;;;;;;;;;;;;22.76;51.57;100491.91;2359340;75;50230;-76
2023/05/23 01:29:28;;;;;;;;;;;;;;;22.77;51.58;100490.85;2326390;75;51019;-75
2023/05/23 01:32:30;;;;;;;;;;;;;;;22.74;51.62;100492.64;2351218;75;50815;-75
2023/05/23 01:35:31;;;;;;;;;;;;;;;22.76;51.56;100494.61;2351289;75;50276;-75
2023/05/23 01:38:33;;;;;;;;;;;;;;;22.76;51.56;100493.25;2350895;74;50248;-76
2023/05/23 01:41:34;;;;;;;;;;;;;;;22.77;51.58;100488.69;2378685;74;49925;-75
2023/05/23 01:44:36;;;;;;;;;;;;;;;22.77;51.55;100480.59;2352922;75;51487;-75
2023/05/23 01:47:38;;;;;;;;;;;;;;;22.76;51.56;100478.91;2350922;75;50645;-75
2023/05/23 01:50:39;;;;;;;;;;;;;;;22.76;51.60;100480.27;2351098;74;50306;-75
2023/05/23 01:53:42;;;;;;;;;;;;;;;22.76;51.58;100473.02;2370351;73;51522;-75
2023/05/23 01:56:43;;;;;;;;;;;;;;;22.76;51.59;100466.28;2263623;77;49802;-75
2023/05/23 01:59:45;;;;;;;;;;;;;;;22.76;51.59;100464.08;2286540;76;50343;-76
2023/05/23 02:02:46;;;;;;;;;;;;;;;22.75;51.63;100463.27;2286503;76;51579;-75
2023/05/23 02:05:48;;;;;;;;;;;;;;;22.74;51.70;100458.92;2260741;76;50067;-76
2023/05/23 02:08:50;;;;;;;;;;;;;;;22.76;51.58;100460.89;2285942;78;50394;-76
2023/05/23 02:11:51;;;;;;;;;;;;;;;22.76;51.64;100459.54;2285759;78;50363;-76
2023/05/23 02:14:54;;;;;;;;;;;;;;;22.76;51.59;100470.33;2286346;78;50730;-75
2023/05/23 02:17:55;;;;;;;;;;;;;;;22.75;51.58;100477.27;2260313;78;51615;-76
2023/05/23 02:20:57;;;;;;;;;;;;;;;22.77;51.61;100477.89;2285866;76;51522;-75
2023/05/23 02:23:59;;;;;;;;;;;;;;;22.76;51.61;100473.02;2298746;76;51629;-77
2023/05/23 02:27:00;;;;;;;;;;;;;;;22.76;51.59;100478.42;2321157;76;53710;-75
2023/05/23 02:30:02;;;;;;;;;;;;;;;22.76;51.53;100488.36;2320889;76;51426;-76
2023/05/23 02:33:06;;;;;;;;;;;;;;;22.76;51.57;100482.47;2347606;75;50196;-76
2023/05/23 02:36:08;;;;;;;;;;;;;;;22.77;51.55;100488.69;2347432;75;50699;-76
2023/05/23 02:39:09;;;;;;;;;;;;;;;22.76;51.45;100478.42;2320470;76;50770;-75
2023/05/23 02:42:11;;;;;;;;;;;;;;;22.75;51.51;100468.66;2334471;75;52476;-77
2023/05/23 02:45:13;;;;;;;;;;;;;;;22.77;51.55;100465.75;2327852;75;51491;-75
2023/05/23 02:48:14;;;;;;;;;;;;;;;22.76;51.54;100465.43;2327702;75;51470;-76
2023/05/23 02:51:16;;;;;;;;;;;;;;;22.76;51.43;100460.89;2367476;75;51634;-75
2023/05/23 02:54:18;;;;;;;;;;;;;;;22.76;51.47;100460.03;2329294;75;51523;-75
2023/05/23 02:57:19;;;;;;;;;;;;;;;22.76;51.47;100458.69;2356535;75;51525;-76
2023/05/23 03:00:21;;;;;;;;;;;;;;;22.75;51.42;100461.91;2354673;75;50637;-75
2023/05/23 03:03:22;;;;;;;;;;;;;;;22.74;51.45;100460.27;2354613;75;51469;-75
2023/05/23 03:06:26;;;;;;;;;;;;;;;22.74;51.38;100456.22;2354387;74;51411;-75
2023/05/23 03:09:27;;;;;;;;;;;;;;;22.73;51.28;100465.34;2356868;74;22335;-73
2023/05/23 03:12:29;;;;;;;;;;;;;;;22.73;51.34;100462.64;2356510;75;50167;-75
2023/05/23 03:15:31;;;;;;;;;;;;;;;22.74;51.38;100463.49;2354605;74;50348;-75
2023/05/23 03:18:32;;;;;;;;;;;;;;;22.74;51.32;100467.02;2328111;75;51126;-75
2023/05/23 03:21:34;;;;;;;;;;;;;;;22.72;51.31;100470.44;2354703;74;50184;-76
2023/05/23 03:24:35;;;;;;;;;;;;;;;22.74;51.38;100464.84;2355861;75;50344;-76
2023/05/23 03:27:37;;;;;;;;;;;;;;;22.74;51.36;100469.71;2358449;75;51649;-75
2023/05/23 03:30:39;;;;;;;;;;;;;;;22.73;51.24;100469.38;2330227;75;51363;-75
2023/05/23 03:33:40;;;;;;;;;;;;;;;22.73;51.20;100470.73;2356904;74;52242;-75
2023/05/23 03:36:42;;;;;;;;;;;;;;;22.73;51.21;100469.38;2358472;75;51473;-75
2023/05/23 03:39:44;;;;;;;;;;;;;;;22.74;51.23;100460.27;2358479;74;51492;-76
2023/05/23 03:42:47;;;;;;;;;;;;;;;22.73;51.20;100454.55;2332049;75;51727;-76
2023/05/23 03:45:49;;;;;;;;;;;;;;;22.73;51.15;100449.69;2358691;74;51563;-76
2023/05/23 03:48:50;;;;;;;;;;;;;;;22.72;51.16;100436.72;2356834;74;50620;-76
2023/05/23 03:51:52;;;;;;;;;;;;;;;22.72;51.12;100433.20;2354158;74;51540;-75
2023/05/23 03:54:54;;;;;;;;;;;;;;;22.71;51.13;100436.43;2286890;75;51190;-75
2023/05/23 03:57:55;;;;;;;;;;;;;;;22.72;51.17;100432.67;2356477;75;51511;-76
2023/05/23 04:00:57;;;;;;;;;;;;;;;22.71;51.13;100426.98;2354802;75;51541;-76
2023/05/23 04:03:59;;;;;;;;;;;;;;;22.71;51.11;100430.18;2354681;75;50307;-76
2023/05/23 04:07:01;;;;;;;;;;;;;;;22.71;51.15;100428.84;2390211;74;52304;-75
2023/05/23 04:10:03;;;;;;;;;;;;;;;22.72;51.18;100431.86;2354540;74;51491;-76
2023/05/23 04:13:05;;;;;;;;;;;;;;;22.73;51.11;100428.92;2356680;75;50298;-76
2023/05/23 04:16:07;;;;;;;;;;;;;;;22.73;51.15;100425.41;2354687;74;51525;-76
2023/05/23 04:19:08;;;;;;;;;;;;;;;22.73;51.05;100429.45;2329561;75;49768;-76
2023/05/23 04:22:10;;;;;;;;;;;;;;;22.73;51.09;100437.55;2355142;75;50107;-75
2023/05/23 04:25:12;;;;;;;;;;;;;;;22.73;51.06;100457.77;2327987;75;50637;-76
2023/05/23 04:28:16;;;;;;;;;;;;;;;22.73;51.00;100470.73;2356910;74;51524;-75
2023/05/23 04:31:17;;;;;;;;;;;;;;;22.73;50.99;100470.73;2357383;74;23084;-75
2023/05/23 04:34:21;;;;;;;;;;;;;;;22.74;50.97;100463.49;2358816;74;50443;-75
2023/05/23 04:37:24;;;;;;;;;;;;;;;22.72;50.98;100446.16;2356765;74;51556;-75
2023/05/23 04:40:26;;;;;;;;;;;;;;;22.71;50.95;100442.32;2359001;74;21953;-75
2023/05/23 04:43:28;;;;;;;;;;;;;;;22.72;50.97;100446.69;2330519;75;49668;-76
2023/05/23 04:46:29;;;;;;;;;;;;;;;22.73;50.83;100450.50;2358687;74;51588;-75
2023/05/23 04:49:33;;;;;;;;;;;;;;;22.58;48.67;100439.17;2357335;75;51463;-75
2023/05/23 04:52:34;;;;;;;;;;;;;;;22.51;46.68;100434.35;2347917;74;50652;-75
2023/05/23 04:55:36;;;;;;;;;;;;;;;22.46;46.53;100442.25;2329063;75;53727;-74
2023/05/23 04:58:39;;;;;;;;;;;;;;;22.49;48.20;100443.98;2356435;74;50608;-74
2023/05/23 05:01:41;;;;;;;;;;;;;;;22.53;48.87;100449.77;2354273;75;25734;-74
2023/05/23 05:04:42;;;;;;;;;;;;;;;22.52;49.09;100442.73;2326296;75;50603;-74
2023/05/23 05:07:44;;;;;;;;;;;;;;;22.54;49.04;100437.95;2277663;77;52321;-73
2023/05/23 05:10:45;;;;;;;;;;;;;;;22.55;49.21;100443.65;2292543;77;51422;-73
2023/05/23 05:13:47;;;;;;;;;;;;;;;22.55;49.35;100440.42;2353176;75;51275;-76
2023/05/23 05:16:49;;;;;;;;;;;;;;;22.55;49.44;100434.20;2350006;75;50358;-75
2023/05/23 05:19:51;;;;;;;;;;;;;;;22.55;49.51;100439.08;2317442;75;52450;-75
2023/05/23 05:22:56;;;;;;;;;;;;;;;22.55;49.58;100440.42;2307591;75;51413;-75
2023/05/23 05:25:59;;;;;;;;;;;;;;;22.55;49.64;100434.20;2345183;75;50356;-75
2023/05/23 05:29:01;;;;;;;;;;;;;;;22.54;49.63;100435.27;2354459;75;51601;-75
2023/05/23 05:32:02;;;;;;;;;;;;;;;22.55;49.60;100445.81;2328270;75;52404;-75
2023/05/23 05:35:04;;;;;;;;;;;;;;;22.54;49.41;100452.27;2354737;75;51416;-76
2023/05/23 05:38:07;;;;;;;;;;;;;;;22.56;49.17;100457.45;2354506;75;50610;-75
2023/05/23 05:41:08;;;;;;;;;;;;;;;22.55;49.33;100456.60;2356617;75;50341;-75
2023/05/23 05:44:10;;;;;;;;;;;;;;;22.56;49.57;100456.11;2327573;75;51670;-75
2023/05/23 05:47:12;;;;;;;;;;;;;;;22.55;49.60;100464.69;2355495;75;51537;-75
2023/05/23 05:50:13;;;;;;;;;;;;;;;22.54;49.75;100460.87;2353399;75;50269;-75
2023/05/23 05:53:15;;;;;;;;;;;;;;;22.55;49.73;100466.56;2357993;75;50687;-76
2023/05/23 05:56:17;;;;;;;;;;;;;;;22.54;49.60;100460.35;2328793;75;51305;-74
2023/05/23 05:59:19;;;;;;;;;;;;;;;22.53;49.42;100451.97;2359782;74;51534;-75
2023/05/23 06:02:20;;;;;;;;;;;;;;;22.55;49.46;100451.21;2361094;75;51461;-75
2023/05/23 06:05:22;;;;;;;;;;;;;;;22.56;49.56;100450.72;2359833;75;51400;-75
2023/05/23 06:08:24;;;;;;;;;;;;;;;22.57;49.48;100446.96;2359320;75;51731;-75
2023/05/23 06:11:25;;;;;;;;;;;;;;;22.58;49.39;100449.95;2359537;75;52437;-75
2023/05/23 06:14:27;;;;;;;;;;;;;;;22.56;49.48;100448.84;2357756;75;51424;-75
2023/05/23 06:17:29;;;;;;;;;;;;;;;22.56;49.51;100441.28;2357579;75;51457;-74
2023/05/23 06:20:30;;;;;;;;;;;;;;;22.55;49.82;100440.95;2323563;75;51148;-77
2023/05/23 06:23:32;;;;;;;;;;;;;;;22.55;50.08;100435.03;2365287;74;51447;-75
2023/05/23 06:26:33;;;;;;;;;;;;;;;22.56;50.31;100439.41;2353459;75;50727;-75
2023/05/23 06:29:35;;;;;;;;;;;;;;;22.57;50.33;100442.92;2354388;75;51464;-75
2023/05/23 06:32:37;;;;;;;;;;;;;;;22.57;50.32;100438.88;2329184;75;51580;-75
2023/05/23 06:35:38;;;;;;;;;;;;;;;22.59;50.33;100442.19;2356319;75;51434;-75
2023/05/23 06:38:40;;;;;;;;;;;;;;;22.61;50.29;100440.11;2356001;75;51365;-74
2023/05/23 06:41:42;;;;;;;;;;;;;;;22.61;50.22;100441.45;2354212;75;51347;-74
2023/05/23 06:44:44;;;;;;;;;;;;;;;22.60;50.29;100448.70;2387068;74;52402;-75
2023/05/23 06:47:46;;;;;;;;;;;;;;;22.61;50.34;100441.45;2355910;74;51451;-74
2023/05/23 06:50:48;;;;;;;;;;;;;;;22.64;50.28;100438.85;2354253;75;50665;-74
2023/05/23 06:53:50;;;;;;;;;;;;;;;22.67;50.23;100444.63;2356772;75;50205;-75
2023/05/23 06:56:51;;;;;;;;;;;;;;;22.69;50.12;100440.39;2323592;75;51222;-75
2023/05/23 06:59:53;;;;;;;;;;;;;;;22.68;50.13;100448.15;2350760;75;50739;-75
2023/05/23 07:02:55;;;;;;;;;;;;;;;22.73;50.08;100443.76;2350664;75;51478;-75
2023/05/23 07:05:57;;;;;;;;;;;;;;;22.81;49.92;100442.68;2352657;75;50526;-74
2023/05/23 07:08:58;;;;;;;;;;;;;;;22.73;49.99;100439.71;2377947;74;51711;-75
2023/05/23 07:12:00;;;;;;;;;;;;;;;22.72;50.08;100447.52;2352648;74;50636;-75
2023/05/23 07:15:01;;;;;;;;;;;;;;;22.73;50.03;100443.76;2350841;75;51584;-75
2023/05/23 07:18:03;;;;;;;;;;;;;;;22.85;49.81;100440.40;2350504;75;50389;-76
2023/05/23 07:21:05;;;;;;;;;;;;;;;22.91;49.70;100441.69;2324680;75;50943;-75
2023/05/23 07:24:06;;;;;;;;;;;;;;;22.88;49.77;100434.56;2348518;75;50261;-75
2023/05/23 07:27:08;;;;;;;;;;;;;;;22.86;49.76;100442.04;2355095;74;51662;-74
2023/05/23 07:30:10;;;;;;;;;;;;;;;22.86;49.76;100444.20;2353585;75;50462;-75
2023/05/23 07:33:13;;;;;;;;;;;;;;;22.85;49.78;100441.75;2386175;74;51223;-75
2023/05/23 07:36:15;;;;;;;;;;;;;;;22.82;49.80;100447.88;2378486;74;52413;-75
2023/05/23 07:39:20;;;;;;;;;;;;;;;22.85;49.79;100441.22;2355490;75;51643;-75
2023/05/23 07:42:20;;;;;;;;;;;;;;;22.84;49.69;100439.58;2355426;75;22383;-75
2023/05/23 07:45:21;;;;;;;;;;;;;;;22.81;49.78;100434.59;2355605;75;50241;-75
2023/05/23 07:48:25;;;;;;;;;;;;;;;22.81;49.77;100429.20;2326958;75;51165;-75
2023/05/23 07:51:26;;;;;;;;;;;;;;;22.87;49.64;100434.27;2353952;74;22347;-75
2023/05/23 07:54:28;;;;;;;;;;;;;;;22.84;49.75;100435.53;2357122;75;51461;-76
2023/05/23 07:57:30;;;;;;;;;;;;;;;22.86;49.75;100434.77;2356262;75;50721;-75
2023/05/23 08:00:32;;;;;;;;;;;;;;;22.90;49.62;100441.92;2387419;73;51202;-75
2023/05/23 08:03:33;;;;;;;;;;;;;;;22.86;49.69;100438.81;2356219;75;51542;-75
2023/05/23 08:06:36;;;;;;;;;;;;;;;22.89;49.65;100447.00;2354096;75;50255;-75
2023/05/23 08:09:41;;;;;;;;;;;;;;;22.89;49.65;100454.59;2356201;75;50849;-75
2023/05/23 08:12:42;;;;;;;;;;;;;;;22.90;49.61;100452.19;2354307;75;50414;-76
2023/05/23 08:15:44;;;;;;;;;;;;;;;22.91;49.59;100455.17;2356355;75;50493;-75
2023/05/23 08:18:46;;;;;;;;;;;;;;;22.90;49.60;100458.11;2355989;75;50297;-75
2023/05/23 08:21:47;;;;;;;;;;;;;;;22.89;49.61;100458.64;2354348;75;50734;-75
2023/05/23 08:24:49;;;;;;;;;;;;;;;22.92;49.52;100454.16;2327420;75;53926;-76
2023/05/23 08:27:50;;;;;;;;;;;;;;;22.97;49.55;100458.41;2353381;75;50719;-76
2023/05/23 08:30:52;;;;;;;;;;;;;;;23.02;49.48;100460.47;2353564;75;51498;-76
2023/05/23 08:33:54;;;;;;;;;;;;;;;23.05;49.47;100464.07;2355603;75;50273;-75
2023/05/23 08:36:56;;;;;;;;;;;;;;;23.06;49.43;100468.41;2385851;74;51207;-76
2023/05/23 08:39:57;;;;;;;;;;;;;;;23.08;49.38;100469.03;2353364;75;50302;-75
2023/05/23 08:42:59;;;;;;;;;;;;;;;23.11;49.33;100480.73;2353507;75;49909;-75
2023/05/23 08:46:00;;;;;;;;;;;;;;;23.11;49.34;100469.94;2353502;75;50362;-75
2023/05/23 08:49:02;;;;;;;;;;;;;;;23.08;49.40;100469.56;2378400;74;49545;-76
2023/05/23 08:52:04;;;;;;;;;;;;;;;23.09;49.34;100477.95;2353398;75;50641;-75
2023/05/23 08:55:06;;;;;;;;;;;;;;;23.07;49.39;100482.23;2353334;75;51412;-76
2023/05/23 08:58:07;;;;;;;;;;;;;;;23.07;49.35;100484.93;2353339;75;50344;-76
2023/05/23 09:01:10;;;;;;;;;;;;;;;23.10;49.32;100481.79;2379278;74;51119;-76
2023/05/23 09:04:11;;;;;;;;;;;;;;;23.12;49.29;100483.76;2355464;75;51554;-76
2023/05/23 09:07:13;;;;;;;;;;;;;;;23.13;49.27;100492.14;2353323;75;51569;-76
2023/05/23 09:10:19;;;;;;;;;;;;;;;23.15;49.28;100492.77;2353410;75;51416;-76
2023/05/23 09:13:19;;;;;;;;;;;;;;;23.15;49.22;100490.06;2352658;74;23106;-75
2023/05/23 09:16:20;;;;;;;;;;;;;;;23.14;49.27;100493.78;2355273;75;50675;-76
2023/05/23 09:19:22;;;;;;;;;;;;;;;23.11;49.35;100492.88;2353477;75;50212;-75
2023/05/23 09:22:28;;;;;;;;;;;;;;;23.06;49.47;100504.02;2354032;75;50708;-75
2023/05/23 09:25:27;;;;;;;;;;;;;;;23.04;49.49;100505.58;2352593;74;22347;-75
2023/05/23 09:28:29;;;;;;;;;;;;;;;23.06;49.49;100512.13;2353286;75;51509;-76
2023/05/23 09:31:31;;;;;;;;;;;;;;;23.07;49.46;100509.22;2353555;75;50209;-75
2023/05/23 09:34:33;;;;;;;;;;;;;;;23.08;49.43;100504.11;2353645;75;51470;-75
2023/05/23 09:37:35;;;;;;;;;;;;;;;23.10;49.41;100507.95;2327041;75;52247;-75
2023/05/23 09:40:36;;;;;;;;;;;;;;;23.09;49.46;100511.16;2355529;74;50415;-75
2023/05/23 09:43:51;;;;;;;;;;;;;;;23.09;49.42;100504.41;2355891;74;50408;-75
2023/05/23 09:46:52;;;;;;;;;;;;;;;23.10;49.42;100504.73;2353420;75;50422;-76
2023/05/23 09:49:54;;;;;;;;;;;;;;;23.09;49.46;100519.25;2327199;75;52394;-75
2023/05/23 09:52:56;;;;;;;;;;;;;;;23.10;49.44;100507.95;2354427;75;51569;-76
2023/05/23 09:55:59;;;;;;;;;;;;;;;23.11;49.44;100513.12;2359420;75;51527;-75
2023/05/23 09:59:01;;;;;;;;;;;;;;;23.11;49.49;100523.09;2361275;75;50830;-76
2023/05/23 10:02:03;;;;;;;;;;;;;;;23.11;49.49;100513.12;2389685;73;51769;-75
2023/05/23 10:05:05;;;;;;;;;;;;;;;23.09;49.51;100511.16;2361997;75;50348;-75
2023/05/23 10:08:10;;;;;;;;;;;;;;;23.11;49.50;100513.12;2361762;75;50070;-76
2023/05/23 10:11:17;;;;;;;;;;;;;;;23.10;49.54;100513.36;2362073;74;50687;-75
2023/05/23 10:14:18;;;;;;;;;;;;;;;23.09;49.58;100526.53;2329859;75;51338;-75
2023/05/23 10:17:28;;;;;;;;;;;;;;;23.13;49.57;100520.48;2361892;74;50421;-76
2023/05/23 10:20:33;;;;;;;;;;;;;;;23.10;49.56;100523.62;2362157;75;50723;-75
2023/05/23 10:23:35;;;;;;;;;;;;;;;23.09;49.61;100505.76;2355594;74;50303;-75
2023/05/23 10:26:37;;;;;;;;;;;;;;;23.09;49.61;100515.73;2353378;75;50609;-76
2023/05/23 10:29:38;;;;;;;;;;;;;;;23.09;49.63;100519.78;2353489;75;51400;-76
2023/05/23 10:32:40;;;;;;;;;;;;;;;23.09;49.67;100520.60;2353585;75;50725;-75
2023/05/23 10:35:55;;;;;;;;;;;;;;;23.07;49.69;100517.31;2353579;75;51495;-75
2023/05/23 10:39:01;;;;;;;;;;;;;;;23.08;49.72;100516.26;2327974;75;51700;-75
2023/05/23 10:42:06;;;;;;;;;;;;;;;23.07;49.75;100517.31;2352844;75;50375;-76
2023/05/23 10:45:14;;;;;;;;;;;;;;;23.08;49.75;100521.66;2353509;75;51512;-75
2023/05/23 10:48:30;;;;;;;;;;;;;;;23.08;49.70;100521.66;2353391;75;50315;-76
2023/05/23 10:51:33;;;;;;;;;;;;;;;23.07;49.73;100528.11;2329335;75;49669;-76
2023/05/23 10:54:35;;;;;;;;;;;;;;;23.07;49.75;100524.56;2358236;75;50496;-76
2023/05/23 10:57:37;;;;;;;;;;;;;;;23.08;49.79;100526.23;2354608;75;49970;-76
2023/05/23 11:00:38;;;;;;;;;;;;;;;23.09;49.78;100542.72;2354682;75;50347;-76
2023/05/23 11:03:47;;;;;;;;;;;;;;;23.10;49.83;100544.39;2354750;75;51500;-76
2023/05/23 11:06:49;;;;;;;;;;;;;;;23.09;49.86;100539.49;2354417;75;51544;-76
2023/05/23 11:09:59;;;;;;;;;;;;;;;23.11;49.84;100534.71;2354627;75;50396;-76
2023/05/23 11:13:10;;;;;;;;;;;;;;;23.11;49.86;100536.59;2348656;75;50416;-76
2023/05/23 11:16:28;;;;;;;;;;;;;;;23.11;49.89;100540.11;2387589;74;49648;-76
2023/05/23 11:19:30;;;;;;;;;;;;;;;23.11;49.90;100550.91;2354170;75;50321;-76
2023/05/23 11:22:31;;;;;;;;;;;;;;;23.16;49.83;100545.69;2355348;75;50632;-76
2023/05/23 11:25:41;;;;;;;;;;;;;;;23.16;49.88;100551.61;2358130;75;51547;-76
2023/05/23 11:28:56;;;;;;;;;;;;;;;23.13;49.93;100547.48;2329849;75;49526;-76
2023/05/23 11:31:58;;;;;;;;;;;;;;;23.17;49.89;100546.02;2362415;74;51587;-76
2023/05/23 11:35:00;;;;;;;;;;;;;;;23.14;50.00;100547.77;2330606;75;51691;-76
2023/05/23 11:38:02;;;;;;;;;;;;;;;23.16;49.98;100543.52;2356852;74;51454;-75
2023/05/23 11:41:05;;;;;;;;;;;;;;;23.16;49.96;100549.73;2357009;74;49964;-75
2023/05/23 11:44:12;;;;;;;;;;;;;;;23.15;49.98;100556.19;2362437;74;50466;-76
2023/05/23 11:47:14;;;;;;;;;;;;;;;23.17;49.97;100555.46;2362362;74;50293;-75
2023/05/23 11:50:15;;;;;;;;;;;;;;;23.19;49.98;100551.18;2356911;75;50677;-76
2023/05/23 11:53:19;;;;;;;;;;;;;;;23.18;50.01;100558.45;2330106;75;51198;-75
2023/05/23 11:56:21;;;;;;;;;;;;;;;23.17;50.02;100562.70;2360850;74;50328;-76
2023/05/23 11:59:24;;;;;;;;;;;;;;;23.14;50.11;100565.31;2369796;74;50369;-75
2023/05/23 12:02:27;;;;;;;;;;;;;;;23.12;50.13;100559.83;2361645;75;50329;-75
2023/05/23 12:05:29;;;;;;;;;;;;;;;23.14;50.13;100567.19;2369653;75;51583;-75
2023/05/23 12:08:31;;;;;;;;;;;;;;;23.14;50.14;100576.11;2361376;75;50102;-75
2023/05/23 12:11:33;;;;;;;;;;;;;;;23.14;50.09;100566.66;2361443;75;50637;-76
2023/05/23 12:14:35;;;;;;;;;;;;;;;23.14;50.10;100566.66;2369741;74;50301;-75
2023/05/23 12:17:37;;;;;;;;;;;;;;;23.15;50.13;100570.22;2392251;73;52573;-75
2023/05/23 12:20:40;;;;;;;;;;;;;;;23.14;50.11;100566.66;2361705;75;50055;-75
2023/05/23 12:23:41;;;;;;;;;;;;;;;23.17;50.09;100566.75;2360625;74;51370;-76
2023/05/23 12:26:47;;;;;;;;;;;;;;;23.16;50.09;100563.23;2354526;75;51484;-75
2023/05/23 12:29:52;;;;;;;;;;;;;;;23.17;50.14;100567.61;2377876;74;51725;-75
2023/05/23 12:32:54;;;;;;;;;;;;;;;23.17;50.19;100563.56;2354645;75;50668;-75
2023/05/23 12:35:55;;;;;;;;;;;;;;;23.18;50.18;100569.25;2350534;75;50471;-75
2023/05/23 12:38:58;;;;;;;;;;;;;;;23.17;50.20;100573.01;2350324;75;50238;-76
2023/05/23 12:42:07;;;;;;;;;;;;;;;23.19;50.18;100570.89;2326054;75;51729;-75
2023/05/23 12:45:09;;;;;;;;;;;;;;;23.17;50.25;100573.01;2350572;75;51586;-76
2023/05/23 12:48:11;;;;;;;;;;;;;;;23.16;50.28;100578.08;2354615;74;50287;-75
2023/05/23 12:51:13;;;;;;;;;;;;;;;23.15;50.27;100575.09;2355752;75;50001;-76
2023/05/23 12:54:15;;;;;;;;;;;;;;;23.14;50.27;100573.41;2389777;73;52428;-76
2023/05/23 12:57:16;;;;;;;;;;;;;;;23.14;50.31;100582.04;2355413;74;52465;-75
2023/05/23 13:00:18;;;;;;;;;;;;;;;23.12;50.35;100582.27;2355649;75;53695;-76
2023/05/23 13:03:20;;;;;;;;;;;;;;;23.13;50.30;100579.86;2355644;74;51484;-76
2023/05/23 13:06:21;;;;;;;;;;;;;;;23.15;50.24;100584.53;2381740;73;51589;-75
2023/05/23 13:09:23;;;;;;;;;;;;;;;23.15;50.23;100580.48;2356516;75;51417;-76
2023/05/23 13:12:24;;;;;;;;;;;;;;;23.15;50.24;100581.84;2356096;75;50690;-75
2023/05/23 13:15:26;;;;;;;;;;;;;;;23.13;50.26;100582.56;2356489;75;50616;-75
2023/05/23 13:18:28;;;;;;;;;;;;;;;23.15;50.24;100591.81;2328094;75;52317;-76
2023/05/23 13:21:30;;;;;;;;;;;;;;;23.15;50.20;100588.59;2357735;75;50244;-76
2023/05/23 13:24:32;;;;;;;;;;;;;;;23.15;50.24;100587.23;2362033;75;50695;-75
2023/05/23 13:27:33;;;;;;;;;;;;;;;23.14;50.24;100590.14;2356105;75;50738;-75
2023/05/23 13:30:35;;;;;;;;;;;;;;;23.14;50.22;100595.01;2332216;75;51626;-73
2023/05/23 13:33:37;;;;;;;;;;;;;;;23.13;50.25;100596.06;2353114;75;50725;-75
2023/05/23 13:36:38;;;;;;;;;;;;;;;23.10;50.28;100591.09;2355719;75;51395;-76
2023/05/23 13:39:40;;;;;;;;;;;;;;;23.12;50.27;100603.01;2355566;75;50129;-75
2023/05/23 13:42:41;;;;;;;;;;;;;;;23.10;50.30;100598.38;2382660;74;51644;-76
2023/05/23 13:45:43;;;;;;;;;;;;;;;23.11;50.27;100618.38;2359112;74;50811;-76
2023/05/23 13:48:45;;;;;;;;;;;;;;;23.09;50.28;100613.71;2345002;75;51424;-76
2023/05/23 13:51:47;;;;;;;;;;;;;;;23.11;50.28;100616.21;2339234;74;51535;-76
2023/05/23 13:54:48;;;;;;;;;;;;;;;23.09;50.28;100627.20;2334288;75;51603;-76
2023/05/23 13:57:50;;;;;;;;;;;;;;;23.06;50.33;100622.77;2356169;75;51790;-76
2023/05/23 14:00:51;;;;;;;;;;;;;;;23.05;50.34;100630.05;2356109;75;51434;-75
2023/05/23 14:03:53;;;;;;;;;;;;;;;23.07;50.29;100632.02;2353961;75;50774;-76
2023/05/23 14:06:55;;;;;;;;;;;;;;;23.07;50.27;100633.36;2328952;75;50994;-76
2023/05/23 14:09:57;;;;;;;;;;;;;;;23.09;50.18;100632.61;2356008;74;51362;-75
2023/05/23 14:12:59;;;;;;;;;;;;;;;23.09;50.18;100629.91;2353836;75;50583;-74
2023/05/23 14:16:00;;;;;;;;;;;;;;;23.08;50.27;100629.61;2353999;75;50323;-74
2023/05/23 14:19:02;;;;;;;;;;;;;;;23.07;50.24;100632.02;2327521;75;51405;-75
2023/05/23 14:22:03;;;;;;;;;;;;;;;23.07;50.25;100629.81;2356502;75;51492;-75
2023/05/23 14:25:05;;;;;;;;;;;;;;;23.08;50.27;100623.39;2350098;75;51556;-75
2023/05/23 14:28:07;;;;;;;;;;;;;;;23.08;50.21;100629.61;2346758;75;51495;-75
2023/05/23 14:31:08;;;;;;;;;;;;;;;23.08;50.21;100630.96;2325162;75;52238;-75
2023/05/23 14:34:11;;;;;;;;;;;;;;;23.05;50.31;100646.23;2352486;75;50354;-75
2023/05/23 14:37:12;;;;;;;;;;;;;;;23.05;50.31;100639.49;2346902;75;51531;-75
2023/05/23 14:40:15;;;;;;;;;;;;;;;23.02;50.27;100639.39;2352296;75;51436;-75
2023/05/23 14:43:16;;;;;;;;;;;;;;;23.01;50.30;100644.47;2325489;75;51694;-75
2023/05/23 14:46:18;;;;;;;;;;;;;;;23.01;50.32;100642.30;2352502;74;53371;-75
2023/05/23 14:49:19;;;;;;;;;;;;;;;23.00;50.37;100639.30;2353301;75;51403;-75
2023/05/23 14:52:21;;;;;;;;;;;;;;;22.99;50.42;100652.47;2352298;75;51378;-76
2023/05/23 14:55:23;;;;;;;;;;;;;;;22.98;50.42;100655.69;2354446;74;52110;-76
2023/05/23 14:58:24;;;;;;;;;;;;;;;22.97;50.43;100650.00;2351815;75;50283;-76
2023/05/23 15:01:26;;;;;;;;;;;;;;;22.97;50.45;100659.44;2352230;75;50278;-75
2023/05/23 15:04:28;;;;;;;;;;;;;;;22.98;50.44;100662.44;2350188;75;51598;-75
2023/05/23 15:07:31;;;;;;;;;;;;;;;22.98;50.42;100657.56;2325265;75;51077;-76
2023/05/23 15:10:32;;;;;;;;;;;;;;;22.98;50.39;100664.31;2349926;75;50680;-75
2023/05/23 15:13:34;;;;;;;;;;;;;;;22.96;50.48;100666.36;2352239;75;50698;-76
2023/05/23 15:16:36;;;;;;;;;;;;;;;22.97;50.44;100669.41;2349861;75;50284;-76
2023/05/23 15:19:43;;;;;;;;;;;;;;;22.97;50.46;100684.25;2377816;74;51239;-75
2023/05/23 15:22:40;;;;;;;;;;;;;;;22.95;50.47;100695.74;2346728;75;22375;-75
2023/05/23 15:25:42;;;;;;;;;;;;;;;22.96;50.78;100694.16;2352896;75;51421;-76
2023/05/23 15:28:44;;;;;;;;;;;;;;;22.98;50.70;100698.87;2351062;75;51460;-76
2023/05/23 15:31:45;;;;;;;;;;;;;;;22.98;50.62;100700.22;2324902;75;52535;-76
2023/05/23 15:34:47;;;;;;;;;;;;;;;22.97;50.62;100701.80;2351041;75;51543;-74